sensor_id;sensor_type;location;lat;lon;timestamp;temperature;humidity
21646;DHT22;10984;45.712;4.800;2023-09-18T00:00:14;24.20;66.10
21646;DHT22;10984;45.712;4.800;2023-09-18T00:02:40;24.00;54.70
21646;DHT22;10984;45.712;4.800;2023-09-18T00:05:06;23.90;75.90
21646;DHT22;10984;45.712;4.800;2023-09-18T00:07:32;23.80;99.90
21646;DHT22;10984;45.712;4.800;2023-09-18T00:09:57;23.70;99.90
21646;DHT22;10984;45.712;4.800;2023-09-18T00:12:23;23.60;99.90
21646;DHT22;10984;45.712;4.800;2023-09-18T00:14:49;23.50;99.90
21646;DHT22;10984;45.712;4.800;2023-09-18T00:17:15;23.50;99.90
21646;DHT22;10984;45.712;4.800;2023-09-18T00:19:42;23.40;99.90
21646;DHT22;10984;45.712;4.800;2023-09-18T00:22:08;23.50;99.90
21646;DHT22;10984;45.712;4.800;2023-09-18T00:24:34;23.40;99.90
21646;DHT22;10984;45.712;4.800;2023-09-18T00:26:59;23.40;99.90
21646;DHT22;10984;45.712;4.800;2023-09-18T00:29:25;23.30;99.90
21646;DHT22;10984;45.712;4.800;2023-09-18T00:31:51;23.30;99.90
21646;DHT22;10984;45.712;4.800;2023-09-18T00:34:16;23.30;99.90
21646;DHT22;10984;45.712;4.800;2023-09-18T00:36:42;23.30;99.90
21646;DHT22;10984;45.712;4.800;2023-09-18T00:39:07;23.30;99.90
21646;DHT22;10984;45.712;4.800;2023-09-18T00:41:33;23.30;99.90
21646;DHT22;10984;45.712;4.800;2023-09-18T00:43:59;23.30;99.90
21646;DHT22;10984;45.712;4.800;2023-09-18T00:46:25;23.30;99.90
21646;DHT22;10984;45.712;4.800;2023-09-18T00:48:53;23.30;99.90
21646;DHT22;10984;45.712;4.800;2023-09-18T00:51:19;23.20;99.90
21646;DHT22;10984;45.712;4.800;2023-09-18T00:53:46;23.20;99.90
21646;DHT22;10984;45.712;4.800;2023-09-18T00:56:14;23.20;99.90
21646;DHT22;10984;45.712;4.800;2023-09-18T00:58:40;23.10;99.90
21646;DHT22;10984;45.712;4.800;2023-09-18T01:01:06;23.10;99.90
21646;DHT22;10984;45.712;4.800;2023-09-18T01:03:31;23.10;99.90
21646;DHT22;10984;45.712;4.800;2023-09-18T01:05:57;23.10;1.00
21646;DHT22;10984;45.712;4.800;2023-09-18T01:08:23;23.00;1.00
21646;DHT22;10984;45.712;4.800;2023-09-18T01:17:01;22.50;1.00
21646;DHT22;10984;45.712;4.800;2023-09-18T01:19:47;22.40;1.00
21646;DHT22;10984;45.712;4.800;2023-09-18T01:22:14;22.30;1.00
21646;DHT22;10984;45.712;4.800;2023-09-18T01:24:41;22.10;1.00
21646;DHT22;10984;45.712;4.800;2023-09-18T01:29:54;22.00;1.00
21646;DHT22;10984;45.712;4.800;2023-09-18T01:32:22;21.90;1.00
21646;DHT22;10984;45.712;4.800;2023-09-18T01:34:51;21.70;1.80
21646;DHT22;10984;45.712;4.800;2023-09-18T01:37:22;21.50;24.10
21646;DHT22;10984;45.712;4.800;2023-09-18T01:39:50;21.40;32.80
21646;DHT22;10984;45.712;4.800;2023-09-18T01:42:17;21.40;57.10
21646;DHT22;10984;45.712;4.800;2023-09-18T01:44:43;21.30;93.70
21646;DHT22;10984;45.712;4.800;2023-09-18T01:47:12;21.40;99.90
21646;DHT22;10984;45.712;4.800;2023-09-18T01:49:39;21.30;99.90
21646;DHT22;10984;45.712;4.800;2023-09-18T01:52:06;21.40;99.90
21646;DHT22;10984;45.712;4.800;2023-09-18T01:54:33;21.30;99.90
21646;DHT22;10984;45.712;4.800;2023-09-18T01:56:59;21.30;99.90
21646;DHT22;10984;45.712;4.800;2023-09-18T01:59:26;21.30;99.90
21646;DHT22;10984;45.712;4.800;2023-09-18T02:01:52;21.30;99.90
21646;DHT22;10984;45.712;4.800;2023-09-18T02:04:19;21.20;99.90
21646;DHT22;10984;45.712;4.800;2023-09-18T02:06:46;21.20;99.90
21646;DHT22;10984;45.712;4.800;2023-09-18T02:09:12;21.10;99.90
21646;DHT22;10984;45.712;4.800;2023-09-18T02:11:40;21.10;99.90
21646;DHT22;10984;45.712;4.800;2023-09-18T02:14:06;21.10;99.90
21646;DHT22;10984;45.712;4.800;2023-09-18T02:16:50;21.00;99.90
21646;DHT22;10984;45.712;4.800;2023-09-18T02:19:17;20.90;99.90
21646;DHT22;10984;45.712;4.800;2023-09-18T02:21:44;20.90;99.90
21646;DHT22;10984;45.712;4.800;2023-09-18T02:24:09;20.70;99.90
21646;DHT22;10984;45.712;4.800;2023-09-18T02:26:35;20.70;99.90
21646;DHT22;10984;45.712;4.800;2023-09-18T02:29:02;20.70;99.90
21646;DHT22;10984;45.712;4.800;2023-09-18T02:31:29;20.80;99.90
21646;DHT22;10984;45.712;4.800;2023-09-18T02:33:55;20.70;99.90
21646;DHT22;10984;45.712;4.800;2023-09-18T02:36:21;20.80;99.90
21646;DHT22;10984;45.712;4.800;2023-09-18T02:38:46;20.80;99.90
21646;DHT22;10984;45.712;4.800;2023-09-18T02:41:12;20.80;99.90
21646;DHT22;10984;45.712;4.800;2023-09-18T02:43:37;20.80;99.90
21646;DHT22;10984;45.712;4.800;2023-09-18T02:46:04;20.80;99.90
21646;DHT22;10984;45.712;4.800;2023-09-18T02:48:31;20.80;99.90
21646;DHT22;10984;45.712;4.800;2023-09-18T02:50:57;20.70;99.90
21646;DHT22;10984;45.712;4.800;2023-09-18T02:53:24;20.80;99.90
21646;DHT22;10984;45.712;4.800;2023-09-18T02:55:52;20.80;99.90
21646;DHT22;10984;45.712;4.800;2023-09-18T02:58:19;20.80;99.90
21646;DHT22;10984;45.712;4.800;2023-09-18T03:03:30;20.80;99.90
21646;DHT22;10984;45.712;4.800;2023-09-18T03:06:15;20.70;99.90
21646;DHT22;10984;45.712;4.800;2023-09-18T03:08:41;20.60;99.90
21646;DHT22;10984;45.712;4.800;2023-09-18T03:11:25;20.50;99.90
21646;DHT22;10984;45.712;4.800;2023-09-18T03:13:53;20.40;99.90
21646;DHT22;10984;45.712;4.800;2023-09-18T03:16:19;20.40;99.90
21646;DHT22;10984;45.712;4.800;2023-09-18T03:18:44;20.40;99.90
21646;DHT22;10984;45.712;4.800;2023-09-18T03:21:10;20.40;99.90
21646;DHT22;10984;45.712;4.800;2023-09-18T03:23:35;20.40;99.90
21646;DHT22;10984;45.712;4.800;2023-09-18T03:26:02;20.40;99.90
21646;DHT22;10984;45.712;4.800;2023-09-18T03:28:28;20.40;99.90
21646;DHT22;10984;45.712;4.800;2023-09-18T03:30:53;20.40;99.90
21646;DHT22;10984;45.712;4.800;2023-09-18T03:33:20;20.40;99.90
21646;DHT22;10984;45.712;4.800;2023-09-18T03:35:47;20.30;99.90
21646;DHT22;10984;45.712;4.800;2023-09-18T03:38:13;20.20;99.90
21646;DHT22;10984;45.712;4.800;2023-09-18T03:40:39;20.30;99.90
21646;DHT22;10984;45.712;4.800;2023-09-18T03:43:04;20.30;99.90
21646;DHT22;10984;45.712;4.800;2023-09-18T03:45:30;20.30;99.90
21646;DHT22;10984;45.712;4.800;2023-09-18T03:47:56;20.40;99.90
21646;DHT22;10984;45.712;4.800;2023-09-18T03:50:21;20.40;99.90
21646;DHT22;10984;45.712;4.800;2023-09-18T03:52:47;20.40;99.90
21646;DHT22;10984;45.712;4.800;2023-09-18T03:55:12;20.40;99.90
21646;DHT22;10984;45.712;4.800;2023-09-18T03:57:39;20.30;99.90
21646;DHT22;10984;45.712;4.800;2023-09-18T04:00:05;20.40;99.90
21646;DHT22;10984;45.712;4.800;2023-09-18T04:02:32;20.30;99.90
21646;DHT22;10984;45.712;4.800;2023-09-18T04:04:58;20.20;99.90
21646;DHT22;10984;45.712;4.800;2023-09-18T04:07:24;20.10;99.90
21646;DHT22;10984;45.712;4.800;2023-09-18T04:09:49;20.20;99.90
21646;DHT22;10984;45.712;4.800;2023-09-18T04:12:15;20.20;99.90
21646;DHT22;10984;45.712;4.800;2023-09-18T04:14:41;20.20;99.90
21646;DHT22;10984;45.712;4.800;2023-09-18T04:17:06;20.30;99.90
21646;DHT22;10984;45.712;4.800;2023-09-18T04:19:32;20.30;99.90
21646;DHT22;10984;45.712;4.800;2023-09-18T04:21:58;20.20;99.90
21646;DHT22;10984;45.712;4.800;2023-09-18T04:24:24;20.30;99.90
21646;DHT22;10984;45.712;4.800;2023-09-18T04:26:50;20.30;99.90
21646;DHT22;10984;45.712;4.800;2023-09-18T04:29:16;20.30;99.90
21646;DHT22;10984;45.712;4.800;2023-09-18T04:31:42;20.40;99.90
21646;DHT22;10984;45.712;4.800;2023-09-18T04:34:08;20.30;99.90
21646;DHT22;10984;45.712;4.800;2023-09-18T04:36:33;20.30;99.90
21646;DHT22;10984;45.712;4.800;2023-09-18T04:38:59;20.20;99.90
21646;DHT22;10984;45.712;4.800;2023-09-18T04:41:25;20.20;99.90
21646;DHT22;10984;45.712;4.800;2023-09-18T04:43:51;20.10;99.90
21646;DHT22;10984;45.712;4.800;2023-09-18T04:46:16;20.20;99.90
21646;DHT22;10984;45.712;4.800;2023-09-18T04:48:42;20.20;99.90
21646;DHT22;10984;45.712;4.800;2023-09-18T04:51:07;20.20;99.90
21646;DHT22;10984;45.712;4.800;2023-09-18T04:53:33;20.20;99.90
21646;DHT22;10984;45.712;4.800;2023-09-18T04:55:59;20.30;99.90
21646;DHT22;10984;45.712;4.800;2023-09-18T04:58:26;20.30;99.90
21646;DHT22;10984;45.712;4.800;2023-09-18T05:01:10;20.30;99.90
21646;DHT22;10984;45.712;4.800;2023-09-18T05:03:36;20.40;99.90
21646;DHT22;10984;45.712;4.800;2023-09-18T05:06:02;20.40;99.90
21646;DHT22;10984;45.712;4.800;2023-09-18T05:08:29;20.40;99.90
21646;DHT22;10984;45.712;4.800;2023-09-18T05:10:55;20.40;99.90
21646;DHT22;10984;45.712;4.800;2023-09-18T05:13:20;20.30;99.90
21646;DHT22;10984;45.712;4.800;2023-09-18T05:15:46;20.30;99.90
21646;DHT22;10984;45.712;4.800;2023-09-18T05:18:12;20.30;99.90
21646;DHT22;10984;45.712;4.800;2023-09-18T05:20:39;20.40;99.90
21646;DHT22;10984;45.712;4.800;2023-09-18T05:23:05;20.30;99.90
21646;DHT22;10984;45.712;4.800;2023-09-18T05:25:31;20.30;99.90
21646;DHT22;10984;45.712;4.800;2023-09-18T05:27:59;20.20;99.90
21646;DHT22;10984;45.712;4.800;2023-09-18T05:30:35;20.20;99.90
21646;DHT22;10984;45.712;4.800;2023-09-18T05:33:04;20.20;99.90
21646;DHT22;10984;45.712;4.800;2023-09-18T05:35:49;20.30;99.90
21646;DHT22;10984;45.712;4.800;2023-09-18T05:38:15;20.30;99.90
21646;DHT22;10984;45.712;4.800;2023-09-18T05:40:41;20.20;99.90
21646;DHT22;10984;45.712;4.800;2023-09-18T05:43:06;20.20;99.90
21646;DHT22;10984;45.712;4.800;2023-09-18T05:45:33;20.20;99.90
21646;DHT22;10984;45.712;4.800;2023-09-18T05:47:59;20.30;99.90
21646;DHT22;10984;45.712;4.800;2023-09-18T05:50:43;20.10;99.90
21646;DHT22;10984;45.712;4.800;2023-09-18T05:53:09;20.10;99.90
21646;DHT22;10984;45.712;4.800;2023-09-18T05:55:35;20.10;99.90
21646;DHT22;10984;45.712;4.800;2023-09-18T05:58:01;20.10;99.90
21646;DHT22;10984;45.712;4.800;2023-09-18T06:00:29;20.20;99.90
21646;DHT22;10984;45.712;4.800;2023-09-18T06:02:56;20.10;99.90
21646;DHT22;10984;45.712;4.800;2023-09-18T06:05:21;20.10;99.90
21646;DHT22;10984;45.712;4.800;2023-09-18T06:07:50;20.10;99.90
21646;DHT22;10984;45.712;4.800;2023-09-18T06:10:16;20.10;99.90
21646;DHT22;10984;45.712;4.800;2023-09-18T06:12:43;20.00;99.90
21646;DHT22;10984;45.712;4.800;2023-09-18T06:15:10;20.10;99.90
21646;DHT22;10984;45.712;4.800;2023-09-18T06:17:55;20.00;99.90
21646;DHT22;10984;45.712;4.800;2023-09-18T06:20:20;20.10;99.90
21646;DHT22;10984;45.712;4.800;2023-09-18T06:22:47;20.10;99.90
21646;DHT22;10984;45.712;4.800;2023-09-18T06:25:13;20.10;99.90
21646;DHT22;10984;45.712;4.800;2023-09-18T06:27:40;20.10;99.90
21646;DHT22;10984;45.712;4.800;2023-09-18T06:30:06;20.20;99.90
21646;DHT22;10984;45.712;4.800;2023-09-18T06:32:32;20.20;99.90
21646;DHT22;10984;45.712;4.800;2023-09-18T06:34:58;20.20;99.90
21646;DHT22;10984;45.712;4.800;2023-09-18T06:37:24;20.20;99.90
21646;DHT22;10984;45.712;4.800;2023-09-18T06:39:50;20.10;99.90
21646;DHT22;10984;45.712;4.800;2023-09-18T06:42:16;20.20;99.90
21646;DHT22;10984;45.712;4.800;2023-09-18T06:44:42;20.10;99.90
21646;DHT22;10984;45.712;4.800;2023-09-18T06:47:07;20.10;99.90
21646;DHT22;10984;45.712;4.800;2023-09-18T06:49:33;20.10;99.90
21646;DHT22;10984;45.712;4.800;2023-09-18T06:51:59;20.20;99.90
21646;DHT22;10984;45.712;4.800;2023-09-18T06:54:25;20.20;99.90
21646;DHT22;10984;45.712;4.800;2023-09-18T06:56:51;20.30;99.90
21646;DHT22;10984;45.712;4.800;2023-09-18T06:59:16;20.20;99.90
21646;DHT22;10984;45.712;4.800;2023-09-18T07:01:42;20.20;99.90
21646;DHT22;10984;45.712;4.800;2023-09-18T07:04:08;20.30;99.90
21646;DHT22;10984;45.712;4.800;2023-09-18T07:06:34;20.30;99.90
21646;DHT22;10984;45.712;4.800;2023-09-18T07:09:00;20.40;99.90
21646;DHT22;10984;45.712;4.800;2023-09-18T07:11:25;20.40;99.90
21646;DHT22;10984;45.712;4.800;2023-09-18T07:13:51;20.40;99.90
21646;DHT22;10984;45.712;4.800;2023-09-18T07:16:16;20.40;99.90
21646;DHT22;10984;45.712;4.800;2023-09-18T07:18:42;20.40;99.90
21646;DHT22;10984;45.712;4.800;2023-09-18T07:21:08;20.40;99.90
21646;DHT22;10984;45.712;4.800;2023-09-18T07:23:34;20.50;99.90
21646;DHT22;10984;45.712;4.800;2023-09-18T07:26:02;20.50;99.90
21646;DHT22;10984;45.712;4.800;2023-09-18T07:28:28;20.50;99.90
21646;DHT22;10984;45.712;4.800;2023-09-18T07:30:54;20.60;99.90
21646;DHT22;10984;45.712;4.800;2023-09-18T07:33:20;20.60;99.90
21646;DHT22;10984;45.712;4.800;2023-09-18T07:36:04;20.50;99.90
21646;DHT22;10984;45.712;4.800;2023-09-18T07:38:29;20.60;99.90
21646;DHT22;10984;45.712;4.800;2023-09-18T07:40:56;20.60;99.90
21646;DHT22;10984;45.712;4.800;2023-09-18T07:43:24;20.50;99.90
21646;DHT22;10984;45.712;4.800;2023-09-18T07:45:50;20.60;99.90
21646;DHT22;10984;45.712;4.800;2023-09-18T07:48:16;20.60;99.90
21646;DHT22;10984;45.712;4.800;2023-09-18T07:51:00;20.60;99.90
21646;DHT22;10984;45.712;4.800;2023-09-18T07:53:26;20.60;99.90
21646;DHT22;10984;45.712;4.800;2023-09-18T07:55:56;20.60;99.90
21646;DHT22;10984;45.712;4.800;2023-09-18T07:58:22;20.70;99.90
21646;DHT22;10984;45.712;4.800;2023-09-18T08:00:48;20.60;99.90
21646;DHT22;10984;45.712;4.800;2023-09-18T08:03:14;20.60;99.90
21646;DHT22;10984;45.712;4.800;2023-09-18T08:05:39;20.60;99.90
21646;DHT22;10984;45.712;4.800;2023-09-18T08:08:05;20.60;99.90
21646;DHT22;10984;45.712;4.800;2023-09-18T08:10:31;20.60;99.90
21646;DHT22;10984;45.712;4.800;2023-09-18T08:12:57;20.50;99.90
21646;DHT22;10984;45.712;4.800;2023-09-18T08:15:23;20.40;99.90
21646;DHT22;10984;45.712;4.800;2023-09-18T08:17:49;20.40;99.90
21646;DHT22;10984;45.712;4.800;2023-09-18T08:20:16;20.40;99.90
21646;DHT22;10984;45.712;4.800;2023-09-18T08:22:42;20.40;99.90
21646;DHT22;10984;45.712;4.800;2023-09-18T08:25:09;20.40;99.90
21646;DHT22;10984;45.712;4.800;2023-09-18T08:27:37;20.50;99.90
21646;DHT22;10984;45.712;4.800;2023-09-18T08:30:06;20.50;99.90
21646;DHT22;10984;45.712;4.800;2023-09-18T08:32:31;20.60;99.90
21646;DHT22;10984;45.712;4.800;2023-09-18T08:34:59;20.50;99.90
21646;DHT22;10984;45.712;4.800;2023-09-18T08:37:27;20.50;99.90
21646;DHT22;10984;45.712;4.800;2023-09-18T08:39:52;20.50;99.90
21646;DHT22;10984;45.712;4.800;2023-09-18T08:42:20;20.50;99.90
21646;DHT22;10984;45.712;4.800;2023-09-18T08:44:48;20.50;99.90
21646;DHT22;10984;45.712;4.800;2023-09-18T08:47:15;20.50;99.90
21646;DHT22;10984;45.712;4.800;2023-09-18T08:49:42;20.50;99.90
21646;DHT22;10984;45.712;4.800;2023-09-18T08:52:08;20.40;99.90
21646;DHT22;10984;45.712;4.800;2023-09-18T08:54:34;20.40;99.90
21646;DHT22;10984;45.712;4.800;2023-09-18T08:57:00;20.40;99.90
21646;DHT22;10984;45.712;4.800;2023-09-18T08:59:26;20.40;99.90
21646;DHT22;10984;45.712;4.800;2023-09-18T09:01:53;20.40;99.90
21646;DHT22;10984;45.712;4.800;2023-09-18T09:04:19;20.40;99.90
21646;DHT22;10984;45.712;4.800;2023-09-18T09:06:44;20.40;99.90
21646;DHT22;10984;45.712;4.800;2023-09-18T09:09:10;20.30;99.90
21646;DHT22;10984;45.712;4.800;2023-09-18T09:11:38;20.40;99.90
21646;DHT22;10984;45.712;4.800;2023-09-18T09:14:23;20.40;99.90
21646;DHT22;10984;45.712;4.800;2023-09-18T09:17:07;20.50;99.90
21646;DHT22;10984;45.712;4.800;2023-09-18T09:19:35;20.50;99.90
21646;DHT22;10984;45.712;4.800;2023-09-18T09:22:04;20.50;99.90
21646;DHT22;10984;45.712;4.800;2023-09-18T09:24:48;20.60;99.90
21646;DHT22;10984;45.712;4.800;2023-09-18T09:27:15;20.70;99.90
21646;DHT22;10984;45.712;4.800;2023-09-18T09:29:57;20.70;99.90
21646;DHT22;10984;45.712;4.800;2023-09-18T09:32:23;20.90;99.90
21646;DHT22;10984;45.712;4.800;2023-09-18T09:34:48;21.10;99.90
21646;DHT22;10984;45.712;4.800;2023-09-18T09:37:14;21.20;99.90
21646;DHT22;10984;45.712;4.800;2023-09-18T09:40:03;21.30;99.90
21646;DHT22;10984;45.712;4.800;2023-09-18T09:42:39;21.30;99.90
21646;DHT22;10984;45.712;4.800;2023-09-18T09:45:09;21.40;99.90
21646;DHT22;10984;45.712;4.800;2023-09-18T09:47:37;21.50;99.90
21646;DHT22;10984;45.712;4.800;2023-09-18T09:50:21;21.60;99.90
21646;DHT22;10984;45.712;4.800;2023-09-18T09:52:49;21.60;99.90
21646;DHT22;10984;45.712;4.800;2023-09-18T09:55:34;21.70;99.90
21646;DHT22;10984;45.712;4.800;2023-09-18T09:58:02;21.70;99.90
21646;DHT22;10984;45.712;4.800;2023-09-18T10:00:49;21.70;99.90
21646;DHT22;10984;45.712;4.800;2023-09-18T10:03:19;21.70;99.90
21646;DHT22;10984;45.712;4.800;2023-09-18T10:05:47;21.80;99.90
21646;DHT22;10984;45.712;4.800;2023-09-18T10:08:32;21.80;99.90
21646;DHT22;10984;45.712;4.800;2023-09-18T10:11:17;21.90;99.90
21646;DHT22;10984;45.712;4.800;2023-09-18T10:13:50;21.90;99.90
21646;DHT22;10984;45.712;4.800;2023-09-18T10:16:19;22.00;99.90
21646;DHT22;10984;45.712;4.800;2023-09-18T10:21:38;22.30;99.90
21646;DHT22;10984;45.712;4.800;2023-09-18T10:24:25;22.30;99.90
21646;DHT22;10984;45.712;4.800;2023-09-18T10:29:22;22.60;99.90
21646;DHT22;10984;45.712;4.800;2023-09-18T10:31:50;22.60;99.90
21646;DHT22;10984;45.712;4.800;2023-09-18T10:34:17;22.50;99.90
21646;DHT22;10984;45.712;4.800;2023-09-18T10:36:46;22.70;99.90
21646;DHT22;10984;45.712;4.800;2023-09-18T10:39:12;22.90;99.90
21646;DHT22;10984;45.712;4.800;2023-09-18T10:41:39;22.90;99.90
21646;DHT22;10984;45.712;4.800;2023-09-18T10:44:06;23.10;99.90
21646;DHT22;10984;45.712;4.800;2023-09-18T10:46:32;23.10;99.90
21646;DHT22;10984;45.712;4.800;2023-09-18T10:49:00;23.00;99.90
21646;DHT22;10984;45.712;4.800;2023-09-18T10:51:26;23.00;99.90
21646;DHT22;10984;45.712;4.800;2023-09-18T10:53:53;23.10;99.90
21646;DHT22;10984;45.712;4.800;2023-09-18T10:56:37;23.20;99.90
21646;DHT22;10984;45.712;4.800;2023-09-18T10:59:08;23.40;99.90
21646;DHT22;10984;45.712;4.800;2023-09-18T11:01:37;23.60;99.90
21646;DHT22;10984;45.712;4.800;2023-09-18T11:04:22;23.90;99.90
21646;DHT22;10984;45.712;4.800;2023-09-18T11:07:07;23.90;99.90
21646;DHT22;10984;45.712;4.800;2023-09-18T11:09:42;23.90;99.90
21646;DHT22;10984;45.712;4.800;2023-09-18T11:12:09;23.80;99.90
21646;DHT22;10984;45.712;4.800;2023-09-18T11:17:39;23.70;99.90
21646;DHT22;10984;45.712;4.800;2023-09-18T11:25:54;23.20;99.90
21646;DHT22;10984;45.712;4.800;2023-09-18T11:28:38;23.20;99.90
21646;DHT22;10984;45.712;4.800;2023-09-18T11:31:05;23.40;99.90
21646;DHT22;10984;45.712;4.800;2023-09-18T11:33:49;23.50;99.90
21646;DHT22;10984;45.712;4.800;2023-09-18T11:36:36;23.50;99.90
21646;DHT22;10984;45.712;4.800;2023-09-18T11:39:02;23.70;99.90
21646;DHT22;10984;45.712;4.800;2023-09-18T11:41:46;23.80;99.90
21646;DHT22;10984;45.712;4.800;2023-09-18T11:46:40;23.70;99.90
21646;DHT22;10984;45.712;4.800;2023-09-18T11:49:07;23.70;99.90
21646;DHT22;10984;45.712;4.800;2023-09-18T11:51:35;23.80;99.90
21646;DHT22;10984;45.712;4.800;2023-09-18T11:54:02;23.80;99.90
21646;DHT22;10984;45.712;4.800;2023-09-18T11:56:32;23.80;99.90
21646;DHT22;10984;45.712;4.800;2023-09-18T11:58:58;23.90;99.90
21646;DHT22;10984;45.712;4.800;2023-09-18T12:01:25;23.90;99.90
21646;DHT22;10984;45.712;4.800;2023-09-18T12:04:15;24.00;99.90
21646;DHT22;10984;45.712;4.800;2023-09-18T12:06:41;24.20;99.90
21646;DHT22;10984;45.712;4.800;2023-09-18T12:09:07;24.30;99.90
21646;DHT22;10984;45.712;4.800;2023-09-18T12:11:34;24.40;99.90
21646;DHT22;10984;45.712;4.800;2023-09-18T12:16:45;24.10;99.90
21646;DHT22;10984;45.712;4.800;2023-09-18T12:19:16;24.30;99.90
21646;DHT22;10984;45.712;4.800;2023-09-18T12:21:46;24.30;99.90
21646;DHT22;10984;45.712;4.800;2023-09-18T12:24:31;24.30;99.90
21646;DHT22;10984;45.712;4.800;2023-09-18T12:26:57;24.40;99.90
21646;DHT22;10984;45.712;4.800;2023-09-18T12:29:23;24.30;96.50
21646;DHT22;10984;45.712;4.800;2023-09-18T12:31:49;24.30;99.90
21646;DHT22;10984;45.712;4.800;2023-09-18T12:34:18;24.30;99.90
21646;DHT22;10984;45.712;4.800;2023-09-18T12:36:47;24.20;99.90
21646;DHT22;10984;45.712;4.800;2023-09-18T12:39:13;24.30;99.90
21646;DHT22;10984;45.712;4.800;2023-09-18T12:44:26;24.20;94.50
21646;DHT22;10984;45.712;4.800;2023-09-18T12:46:52;24.20;76.60
21646;DHT22;10984;45.712;4.800;2023-09-18T12:49:22;24.10;60.90
21646;DHT22;10984;45.712;4.800;2023-09-18T12:52:08;24.10;1.00
21646;DHT22;10984;45.712;4.800;2023-09-18T12:54:52;23.90;1.00
21646;DHT22;10984;45.712;4.800;2023-09-18T12:57:36;23.80;1.00
21646;DHT22;10984;45.712;4.800;2023-09-18T13:00:23;23.80;1.00
21646;DHT22;10984;45.712;4.800;2023-09-18T13:02:51;23.60;1.00
21646;DHT22;10984;45.712;4.800;2023-09-18T13:05:21;23.40;1.00
21646;DHT22;10984;45.712;4.800;2023-09-18T13:07:51;23.40;1.00
21646;DHT22;10984;45.712;4.800;2023-09-18T13:10:17;23.50;1.00
21646;DHT22;10984;45.712;4.800;2023-09-18T13:15:09;23.50;1.00
21646;DHT22;10984;45.712;4.800;2023-09-18T13:17:57;23.60;1.00
21646;DHT22;10984;45.712;4.800;2023-09-18T13:20:25;23.50;1.00
21646;DHT22;10984;45.712;4.800;2023-09-18T13:22:53;23.50;1.00
21646;DHT22;10984;45.712;4.800;2023-09-18T13:25:24;23.50;1.00
21646;DHT22;10984;45.712;4.800;2023-09-18T13:27:51;23.50;1.00
21646;DHT22;10984;45.712;4.800;2023-09-18T13:30:18;23.60;1.00
21646;DHT22;10984;45.712;4.800;2023-09-18T13:32:46;23.70;1.00
21646;DHT22;10984;45.712;4.800;2023-09-18T13:35:14;23.80;1.00
21646;DHT22;10984;45.712;4.800;2023-09-18T13:37:40;23.70;1.00
21646;DHT22;10984;45.712;4.800;2023-09-18T13:40:06;23.60;1.00
21646;DHT22;10984;45.712;4.800;2023-09-18T13:42:32;23.70;1.00
21646;DHT22;10984;45.712;4.800;2023-09-18T13:44:59;23.60;1.00
21646;DHT22;10984;45.712;4.800;2023-09-18T13:47:43;23.60;1.00
21646;DHT22;10984;45.712;4.800;2023-09-18T13:50:09;23.60;1.00
21646;DHT22;10984;45.712;4.800;2023-09-18T13:52:36;23.70;1.00
21646;DHT22;10984;45.712;4.800;2023-09-18T13:55:03;23.60;1.00
21646;DHT22;10984;45.712;4.800;2023-09-18T13:57:31;23.60;1.00
21646;DHT22;10984;45.712;4.800;2023-09-18T13:59:57;23.60;1.00
21646;DHT22;10984;45.712;4.800;2023-09-18T14:02:22;23.60;1.00
21646;DHT22;10984;45.712;4.800;2023-09-18T14:04:55;23.60;1.00
21646;DHT22;10984;45.712;4.800;2023-09-18T14:07:20;23.70;1.00
21646;DHT22;10984;45.712;4.800;2023-09-18T14:09:47;23.70;1.00
21646;DHT22;10984;45.712;4.800;2023-09-18T14:12:13;23.80;1.00
21646;DHT22;10984;45.712;4.800;2023-09-18T14:14:41;23.80;1.00
21646;DHT22;10984;45.712;4.800;2023-09-18T14:17:08;23.80;1.00
21646;DHT22;10984;45.712;4.800;2023-09-18T14:19:34;23.90;1.00
21646;DHT22;10984;45.712;4.800;2023-09-18T14:22:00;23.90;1.00
21646;DHT22;10984;45.712;4.800;2023-09-18T14:24:45;23.90;1.00
21646;DHT22;10984;45.712;4.800;2023-09-18T14:27:11;23.80;1.00
21646;DHT22;10984;45.712;4.800;2023-09-18T14:29:38;23.80;1.00
21646;DHT22;10984;45.712;4.800;2023-09-18T14:32:03;23.70;1.00
21646;DHT22;10984;45.712;4.800;2023-09-18T14:34:29;23.70;1.00
21646;DHT22;10984;45.712;4.800;2023-09-18T14:39:45;23.70;1.00
21646;DHT22;10984;45.712;4.800;2023-09-18T14:42:11;23.70;1.00
21646;DHT22;10984;45.712;4.800;2023-09-18T14:44:37;23.60;1.00
21646;DHT22;10984;45.712;4.800;2023-09-18T14:47:12;23.60;1.00
21646;DHT22;10984;45.712;4.800;2023-09-18T14:49:38;23.60;1.00
21646;DHT22;10984;45.712;4.800;2023-09-18T14:52:04;23.60;1.00
21646;DHT22;10984;45.712;4.800;2023-09-18T14:54:30;23.60;1.00
21646;DHT22;10984;45.712;4.800;2023-09-18T14:56:56;23.60;1.00
21646;DHT22;10984;45.712;4.800;2023-09-18T14:59:21;23.60;1.00
21646;DHT22;10984;45.712;4.800;2023-09-18T15:01:47;23.60;1.00
21646;DHT22;10984;45.712;4.800;2023-09-18T15:04:14;23.50;1.00
21646;DHT22;10984;45.712;4.800;2023-09-18T15:06:40;23.50;1.00
21646;DHT22;10984;45.712;4.800;2023-09-18T15:09:06;23.50;1.00
21646;DHT22;10984;45.712;4.800;2023-09-18T15:11:33;23.40;1.00
21646;DHT22;10984;45.712;4.800;2023-09-18T15:14:01;23.20;1.00
21646;DHT22;10984;45.712;4.800;2023-09-18T15:16:27;23.10;1.00
21646;DHT22;10984;45.712;4.800;2023-09-18T15:18:55;23.10;1.00
21646;DHT22;10984;45.712;4.800;2023-09-18T15:21:20;23.00;1.00
21646;DHT22;10984;45.712;4.800;2023-09-18T15:23:46;23.00;1.00
21646;DHT22;10984;45.712;4.800;2023-09-18T15:26:11;23.00;1.00
21646;DHT22;10984;45.712;4.800;2023-09-18T15:28:37;23.00;1.00
21646;DHT22;10984;45.712;4.800;2023-09-18T15:31:03;23.00;1.00
21646;DHT22;10984;45.712;4.800;2023-09-18T15:33:28;22.90;1.00
21646;DHT22;10984;45.712;4.800;2023-09-18T15:35:54;22.90;9.50
21646;DHT22;10984;45.712;4.800;2023-09-18T15:38:20;22.80;1.00
21646;DHT22;10984;45.712;4.800;2023-09-18T15:41:04;22.90;47.60
21646;DHT22;10984;45.712;4.800;2023-09-18T15:43:29;22.90;73.60
21646;DHT22;10984;45.712;4.800;2023-09-18T15:45:55;22.90;99.90
21646;DHT22;10984;45.712;4.800;2023-09-18T15:48:22;22.80;99.90
21646;DHT22;10984;45.712;4.800;2023-09-18T15:50:50;22.70;99.90
21646;DHT22;10984;45.712;4.800;2023-09-18T15:53:15;22.60;99.90
21646;DHT22;10984;45.712;4.800;2023-09-18T15:55:41;22.60;99.90
21646;DHT22;10984;45.712;4.800;2023-09-18T15:58:07;22.60;99.90
21646;DHT22;10984;45.712;4.800;2023-09-18T16:00:33;22.60;99.90
21646;DHT22;10984;45.712;4.800;2023-09-18T16:02:59;22.50;99.90
21646;DHT22;10984;45.712;4.800;2023-09-18T16:05:25;22.40;99.90
21646;DHT22;10984;45.712;4.800;2023-09-18T16:07:51;22.40;99.90
21646;DHT22;10984;45.712;4.800;2023-09-18T16:10:22;22.30;99.90
21646;DHT22;10984;45.712;4.800;2023-09-18T16:12:47;22.30;99.90
21646;DHT22;10984;45.712;4.800;2023-09-18T16:15:13;22.20;99.90
21646;DHT22;10984;45.712;4.800;2023-09-18T16:17:39;22.30;99.90
21646;DHT22;10984;45.712;4.800;2023-09-18T16:20:05;22.20;99.90